createdAt,value
2022-07-29T00:01:05.716Z,96.40
2022-07-29T00:03:32.940Z,95.90
2022-07-29T00:06:00.830Z,96.40
2022-07-29T00:08:28.005Z,95.80
2022-07-29T00:10:55.059Z,94.60
2022-07-29T00:13:31.831Z,95.60
2022-07-29T00:16:04.435Z,95.30
2022-07-29T00:18:33.024Z,96.20
2022-07-29T00:21:00.563Z,97.50
2022-07-29T00:23:27.960Z,99.00
2022-07-29T00:25:55.212Z,99.50
2022-07-29T00:28:22.245Z,99.00
2022-07-29T00:30:49.275Z,99.90
2022-07-29T00:33:16.669Z,99.90
2022-07-29T00:35:47.337Z,99.90
2022-07-29T00:38:16.238Z,99.90
2022-07-29T00:40:45.713Z,99.30
2022-07-29T00:43:14.763Z,99.90
2022-07-29T00:45:43.085Z,99.90
2022-07-29T00:48:10.657Z,99.90
2022-07-29T00:50:38.660Z,99.90
2022-07-29T00:53:08.451Z,99.90
2022-07-29T00:55:36.416Z,99.90
2022-07-29T00:58:04.245Z,99.90
2022-07-29T01:00:31.702Z,99.90
2022-07-29T01:02:59.034Z,99.90
2022-07-29T01:05:48.484Z,99.90
2022-07-29T01:08:16.814Z,99.90
2022-07-29T01:10:44.960Z,99.90
2022-07-29T01:13:12.938Z,99.90
2022-07-29T01:15:49.303Z,99.90
2022-07-29T01:18:29.025Z,99.90
2022-07-29T01:21:11.125Z,99.90
2022-07-29T01:23:57.596Z,99.90
2022-07-29T01:26:36.510Z,99.90
2022-07-29T01:29:09.592Z,99.90
2022-07-29T01:32:00.896Z,99.90
2022-07-29T01:35:10.375Z,99.90
2022-07-29T01:37:40.506Z,99.90
2022-07-29T01:40:19.852Z,99.90
2022-07-29T01:42:52.542Z,99.90
2022-07-29T01:45:24.447Z,99.90
2022-07-29T01:48:16.167Z,99.90
2022-07-29T01:51:00.865Z,99.90
2022-07-29T01:53:51.414Z,99.90
2022-07-29T01:56:20.886Z,99.90
2022-07-29T01:58:50.207Z,99.90
2022-07-29T02:01:18.572Z,99.90
2022-07-29T02:03:47.702Z,99.90
2022-07-29T02:06:19.624Z,99.90
2022-07-29T02:08:48.011Z,99.90
2022-07-29T02:11:15.749Z,99.90
2022-07-29T02:13:44.783Z,99.90
2022-07-29T02:16:13.073Z,99.90
2022-07-29T02:18:43.432Z,99.90
2022-07-29T02:21:14.885Z,99.90
2022-07-29T02:23:50.814Z,99.90
2022-07-29T02:26:21.275Z,99.90
2022-07-29T02:28:55.014Z,99.90
2022-07-29T02:31:26.698Z,99.90
2022-07-29T02:33:55.181Z,99.90
2022-07-29T02:36:23.998Z,99.90
2022-07-29T02:38:52.495Z,99.90
2022-07-29T02:41:46.789Z,99.90
2022-07-29T02:44:20.370Z,99.90
2022-07-29T02:59:43.114Z,99.90
2022-07-29T03:02:12.244Z,99.90
2022-07-29T03:04:42.574Z,99.90
2022-07-29T03:07:11.530Z,99.90
2022-07-29T03:09:39.989Z,99.90
2022-07-29T03:12:07.492Z,99.90
2022-07-29T03:14:36.042Z,99.90
2022-07-29T03:17:04.112Z,99.90
2022-07-29T03:19:32.104Z,99.90
2022-07-29T03:21:59.745Z,99.90
2022-07-29T03:24:32.842Z,99.90
2022-07-29T03:27:00.762Z,99.90
2022-07-29T03:29:33.253Z,99.90
2022-07-29T03:32:07.372Z,99.90
2022-07-29T03:34:38.684Z,99.90
2022-07-29T03:37:07.251Z,99.90
2022-07-29T03:39:39.367Z,99.30
2022-07-29T03:42:09.357Z,97.20
2022-07-29T03:44:38.172Z,97.10
2022-07-29T03:47:07.546Z,95.80
2022-07-29T03:49:37.962Z,1.00
2022-07-29T03:52:06.267Z,99.90
2022-07-29T03:54:33.796Z,99.90
2022-07-29T03:57:06.709Z,99.90
2022-07-29T03:59:37.272Z,91.90
2022-07-29T04:02:06.489Z,99.90
2022-07-29T04:04:35.587Z,99.90
2022-07-29T04:07:02.772Z,99.90
2022-07-29T04:09:30.233Z,99.90
2022-07-29T04:12:03.023Z,1.00
2022-07-29T04:14:33.234Z,99.90
2022-07-29T04:17:01.857Z,99.90
2022-07-29T04:19:29.202Z,99.90
2022-07-29T04:21:57.063Z,99.90
2022-07-29T04:24:24.169Z,99.90
2022-07-29T04:26:51.482Z,99.90
2022-07-29T04:29:19.078Z,99.90
2022-07-29T04:31:46.420Z,99.90
2022-07-29T04:34:14.824Z,99.90
2022-07-29T04:36:42.187Z,99.90
2022-07-29T04:39:09.194Z,99.90
2022-07-29T04:41:36.243Z,99.90
2022-07-29T04:44:06.165Z,99.90
2022-07-29T04:46:35.266Z,99.90
2022-07-29T04:49:04.040Z,99.90
2022-07-29T04:51:31.613Z,99.90
2022-07-29T04:53:58.828Z,99.90
2022-07-29T04:56:26.065Z,99.90
2022-07-29T04:58:53.657Z,99.90
2022-07-29T05:01:21.045Z,99.90
2022-07-29T05:03:48.154Z,99.90
2022-07-29T05:06:15.604Z,99.90
2022-07-29T05:08:42.729Z,99.90
2022-07-29T05:11:11.643Z,99.90
2022-07-29T05:13:45.898Z,99.90
2022-07-29T05:16:14.919Z,99.90
2022-07-29T05:18:43.199Z,99.90
2022-07-29T05:21:10.747Z,99.90
2022-07-29T05:23:37.849Z,99.90
2022-07-29T05:26:05.266Z,99.90
2022-07-29T05:28:36.231Z,99.90
2022-07-29T05:31:03.510Z,99.90
2022-07-29T05:33:35.771Z,99.90
2022-07-29T05:36:08.177Z,99.90
2022-07-29T05:38:36.977Z,99.90
2022-07-29T05:41:05.714Z,99.90
2022-07-29T05:43:33.367Z,99.90
2022-07-29T05:46:00.775Z,99.90
2022-07-29T05:48:30.233Z,99.90
2022-07-29T05:50:57.454Z,99.90
2022-07-29T05:53:24.907Z,99.90
2022-07-29T05:55:53.138Z,99.90
2022-07-29T05:58:20.717Z,99.90
2022-07-29T06:00:48.075Z,99.90
2022-07-29T06:03:15.207Z,99.90
2022-07-29T06:05:42.305Z,99.90
2022-07-29T06:08:09.577Z,99.90
2022-07-29T06:10:36.750Z,99.90
2022-07-29T06:13:04.347Z,99.90
2022-07-29T06:15:31.722Z,99.90
2022-07-29T06:18:01.104Z,99.90
2022-07-29T06:20:31.391Z,99.90
2022-07-29T06:23:01.028Z,99.90
2022-07-29T06:25:31.796Z,99.90
2022-07-29T06:27:59.223Z,99.90
2022-07-29T06:30:26.439Z,99.90
2022-07-29T06:32:53.782Z,99.90
2022-07-29T06:35:41.202Z,99.90
2022-07-29T06:38:14.906Z,99.90
2022-07-29T06:41:01.556Z,99.90
2022-07-29T06:43:42.643Z,99.90
2022-07-29T06:46:19.807Z,99.90
2022-07-29T06:48:48.629Z,99.90
2022-07-29T06:51:17.296Z,99.90
2022-07-29T06:53:59.895Z,99.90
2022-07-29T06:56:38.393Z,99.90
2022-07-29T06:59:09.069Z,99.90
2022-07-29T07:01:40.760Z,99.90
2022-07-29T07:04:09.935Z,99.90
2022-07-29T07:06:37.985Z,99.90
2022-07-29T07:09:05.250Z,99.90
2022-07-29T07:11:32.670Z,99.90
2022-07-29T07:14:03.788Z,99.90
2022-07-29T07:16:32.767Z,99.90
2022-07-29T07:19:00.626Z,99.90
2022-07-29T07:21:30.485Z,99.90
2022-07-29T07:23:59.050Z,99.90
2022-07-29T07:26:26.971Z,99.90
2022-07-29T07:28:54.310Z,99.90
2022-07-29T07:31:21.708Z,99.90
2022-07-29T07:33:49.187Z,99.90
2022-07-29T07:36:16.225Z,99.90
2022-07-29T07:38:43.536Z,99.90
2022-07-29T07:41:11.166Z,99.90
2022-07-29T07:43:38.892Z,99.90
2022-07-29T07:46:06.381Z,99.90
2022-07-29T07:48:35.854Z,99.90
2022-07-29T07:51:03.228Z,99.90
2022-07-29T07:53:31.556Z,99.90
2022-07-29T07:56:15.476Z,99.90
2022-07-29T07:58:42.803Z,99.90
2022-07-29T08:01:10.865Z,99.90
2022-07-29T08:03:38.725Z,99.90
2022-07-29T08:06:06.637Z,99.90
2022-07-29T08:08:34.315Z,99.90
2022-07-29T08:11:06.942Z,99.90
2022-07-29T08:13:37.625Z,99.90
2022-07-29T08:16:13.171Z,99.90
2022-07-29T08:18:42.688Z,99.90
2022-07-29T08:21:09.873Z,99.90
2022-07-29T08:23:47.160Z,99.90
2022-07-29T08:26:17.004Z,99.90
2022-07-29T08:28:50.499Z,99.90
2022-07-29T08:31:19.075Z,99.90
2022-07-29T08:33:46.216Z,99.90
2022-07-29T08:36:14.274Z,99.90
2022-07-29T08:38:41.600Z,99.90
2022-07-29T08:41:08.760Z,99.90
2022-07-29T08:43:38.529Z,99.90
2022-07-29T08:46:05.967Z,99.90
2022-07-29T08:48:34.279Z,99.90
2022-07-29T08:51:02.734Z,99.90
2022-07-29T08:53:32.915Z,99.90
2022-07-29T08:56:00.413Z,99.90
2022-07-29T08:58:32.312Z,99.90
2022-07-29T09:01:04.579Z,99.90
2022-07-29T09:03:36.933Z,99.90
2022-07-29T09:06:04.995Z,99.90
2022-07-29T09:08:33.865Z,99.90
2022-07-29T09:11:03.895Z,99.90
2022-07-29T09:13:33.111Z,99.90
2022-07-29T09:16:03.362Z,99.90
2022-07-29T09:18:41.059Z,99.90
2022-07-29T09:21:37.947Z,99.90
2022-07-29T09:24:15.232Z,99.90
2022-07-29T09:26:45.664Z,99.90
2022-07-29T09:29:18.346Z,99.90
2022-07-29T09:31:47.921Z,99.90
2022-07-29T09:34:18.158Z,99.90
2022-07-29T09:36:47.560Z,99.90
2022-07-29T09:39:17.985Z,99.90
2022-07-29T09:41:54.407Z,99.90
2022-07-29T09:44:23.749Z,99.90
2022-07-29T09:47:00.058Z,99.90
2022-07-29T09:49:27.762Z,99.90
2022-07-29T09:52:12.202Z,99.90
2022-07-29T09:54:41.312Z,99.90
2022-07-29T09:57:22.172Z,99.90
2022-07-29T10:00:20.030Z,99.90
2022-07-29T10:02:48.237Z,99.90
2022-07-29T10:05:24.758Z,99.90
2022-07-29T10:07:57.351Z,99.90
2022-07-29T10:10:34.859Z,99.90
2022-07-29T10:13:08.014Z,99.90
2022-07-29T10:15:42.044Z,99.90
2022-07-29T10:18:10.442Z,99.90
2022-07-29T10:20:38.662Z,99.90
2022-07-29T10:23:06.803Z,99.90
2022-07-29T10:25:34.646Z,99.90
2022-07-29T10:28:01.764Z,99.90
2022-07-29T10:30:29.254Z,99.90
2022-07-29T10:33:06.180Z,99.90
2022-07-29T10:36:00.892Z,99.90
2022-07-29T10:38:28.085Z,99.90
2022-07-29T10:41:26.386Z,99.90
2022-07-29T10:43:57.966Z,99.90
2022-07-29T10:46:27.166Z,99.90
2022-07-29T10:49:11.190Z,99.90
2022-07-29T10:52:00.273Z,99.90
2022-07-29T10:54:37.339Z,99.90
2022-07-29T10:57:53.140Z,99.90
2022-07-29T11:00:16.846Z,99.90
2022-07-29T11:02:50.005Z,99.90
2022-07-29T11:05:20.209Z,99.90
2022-07-29T11:08:20.172Z,99.90
2022-07-29T11:11:17.386Z,99.90
2022-07-29T11:13:46.434Z,99.90
2022-07-29T11:16:15.998Z,99.90
2022-07-29T11:19:13.185Z,99.90
2022-07-29T11:21:53.888Z,99.90
2022-07-29T11:24:30.247Z,99.90
2022-07-29T11:27:20.060Z,99.90
2022-07-29T11:29:53.507Z,99.90
2022-07-29T11:32:22.734Z,99.90
2022-07-29T11:35:37.073Z,99.90
2022-07-29T11:38:23.740Z,99.90
2022-07-29T11:41:18.865Z,99.90
2022-07-29T11:43:57.028Z,99.90
2022-07-29T11:46:42.723Z,99.90
2022-07-29T11:49:13.941Z,99.90
2022-07-29T11:51:48.575Z,99.90
2022-07-29T11:54:27.940Z,99.90
2022-07-29T11:56:56.076Z,99.90
2022-07-29T11:59:23.487Z,99.90
2022-07-29T12:04:53.948Z,99.90
2022-07-29T12:07:35.560Z,99.90
2022-07-29T12:10:04.841Z,99.90
2022-07-29T12:12:35.652Z,99.90
2022-07-29T12:15:20.370Z,99.90
2022-07-29T12:17:49.070Z,99.90
2022-07-29T12:20:28.466Z,99.90
2022-07-29T12:23:05.777Z,99.90
2022-07-29T12:25:35.606Z,99.90
2022-07-29T12:28:05.901Z,99.90
2022-07-29T12:30:49.626Z,99.90
2022-07-29T12:33:20.542Z,99.90
2022-07-29T12:36:06.301Z,99.90
2022-07-29T12:38:36.169Z,99.90
2022-07-29T12:41:04.733Z,99.90
2022-07-29T12:43:32.626Z,99.90
2022-07-29T12:46:13.572Z,99.90
2022-07-29T12:48:43.318Z,99.90
2022-07-29T12:51:15.276Z,99.90
2022-07-29T12:54:02.327Z,99.90
2022-07-29T12:56:42.403Z,99.90
2022-07-29T12:59:16.901Z,99.90
2022-07-29T13:01:45.155Z,99.90
2022-07-29T13:04:24.617Z,99.90
2022-07-29T13:07:04.894Z,99.90
2022-07-29T13:09:42.952Z,99.90
2022-07-29T13:12:12.548Z,99.90
2022-07-29T13:14:46.036Z,99.90
2022-07-29T13:17:16.563Z,99.90
2022-07-29T13:19:44.872Z,99.90
2022-07-29T13:22:16.075Z,99.90
2022-07-29T13:24:53.582Z,99.90
2022-07-29T13:27:23.956Z,99.90
2022-07-29T13:29:54.255Z,99.90
2022-07-29T13:32:27.721Z,99.90
2022-07-29T13:35:07.412Z,99.90
2022-07-29T13:37:39.105Z,99.90
2022-07-29T13:40:08.105Z,99.90
2022-07-29T13:42:35.665Z,99.90
2022-07-29T13:45:03.483Z,99.90
2022-07-29T13:47:32.727Z,99.90
2022-07-29T13:50:02.213Z,99.90
2022-07-29T13:52:29.730Z,99.90
2022-07-29T13:54:57.154Z,99.90
2022-07-29T13:57:24.902Z,99.90
2022-07-29T13:59:54.347Z,99.90
2022-07-29T14:02:25.663Z,99.90
2022-07-29T14:04:56.794Z,99.90
2022-07-29T14:07:24.504Z,99.90
2022-07-29T14:09:52.064Z,99.90
2022-07-29T14:12:20.053Z,99.90
2022-07-29T14:14:47.967Z,99.90
2022-07-29T14:17:16.022Z,99.90
2022-07-29T14:19:43.936Z,99.90
2022-07-29T14:22:11.222Z,99.90
2022-07-29T14:24:39.260Z,99.90
2022-07-29T14:27:07.943Z,99.90
2022-07-29T14:29:38.267Z,99.90
2022-07-29T14:32:11.146Z,99.90
2022-07-29T14:34:39.271Z,99.90
2022-07-29T14:37:07.103Z,99.90
2022-07-29T14:39:42.089Z,99.90
2022-07-29T14:42:11.548Z,99.90
2022-07-29T14:44:42.377Z,99.90
2022-07-29T14:47:09.570Z,99.90
2022-07-29T14:49:36.842Z,99.90
2022-07-29T14:52:04.717Z,99.90
2022-07-29T14:54:31.890Z,99.90
2022-07-29T14:56:59.278Z,99.90
2022-07-29T14:59:27.258Z,99.90
2022-07-29T15:01:54.863Z,99.90
2022-07-29T15:04:22.329Z,99.90
2022-07-29T15:06:49.704Z,99.90
2022-07-29T15:09:17.486Z,99.90
2022-07-29T15:11:45.326Z,99.90
2022-07-29T15:14:12.442Z,99.90
2022-07-29T15:16:43.531Z,99.90
2022-07-29T15:19:11.884Z,99.90
2022-07-29T15:21:48.596Z,99.90
2022-07-29T15:24:20.159Z,99.90
2022-07-29T15:26:48.108Z,99.90
2022-07-29T15:29:16.247Z,99.90
2022-07-29T15:31:44.321Z,99.90
2022-07-29T15:34:11.764Z,99.90
2022-07-29T15:36:55.532Z,99.90
2022-07-29T15:39:23.386Z,99.90
2022-07-29T15:41:50.861Z,99.90
2022-07-29T15:44:18.745Z,99.90
2022-07-29T15:47:04.291Z,99.90
2022-07-29T15:49:48.725Z,99.90
2022-07-29T15:52:25.447Z,99.90
2022-07-29T15:54:55.617Z,99.90
2022-07-29T15:57:23.919Z,99.90
2022-07-29T15:59:51.951Z,99.90
2022-07-29T16:02:19.041Z,99.90
2022-07-29T16:04:46.494Z,99.90
2022-07-29T16:07:14.332Z,99.90
2022-07-29T16:09:42.696Z,99.90
2022-07-29T16:12:14.941Z,99.90
2022-07-29T16:14:43.985Z,99.90
2022-07-29T16:17:14.258Z,99.90
2022-07-29T16:19:43.658Z,99.90
2022-07-29T16:22:11.695Z,99.90
2022-07-29T16:24:39.361Z,99.90
2022-07-29T16:27:06.750Z,99.90
2022-07-29T16:29:34.266Z,99.90
2022-07-29T16:32:01.894Z,99.90
2022-07-29T16:34:29.711Z,99.90
2022-07-29T16:36:56.868Z,99.90
2022-07-29T16:39:24.273Z,99.90
2022-07-29T16:41:51.475Z,99.90
2022-07-29T16:44:18.625Z,99.90
2022-07-29T16:46:46.054Z,99.90
2022-07-29T16:49:19.189Z,99.90
2022-07-29T16:51:48.048Z,99.90
2022-07-29T16:54:15.522Z,99.90
2022-07-29T16:56:42.962Z,99.90
2022-07-29T16:59:10.337Z,99.90
2022-07-29T17:01:37.595Z,99.90
2022-07-29T17:04:07.877Z,99.90
2022-07-29T17:06:40.196Z,99.90
2022-07-29T17:09:09.234Z,99.90
2022-07-29T17:11:51.698Z,99.90
2022-07-29T17:14:39.657Z,99.90
2022-07-29T17:17:13.815Z,99.90
2022-07-29T17:19:44.006Z,99.90
2022-07-29T17:22:15.868Z,99.90
2022-07-29T17:24:46.483Z,99.90
2022-07-29T17:27:14.955Z,99.90
2022-07-29T17:29:42.277Z,99.90
2022-07-29T17:32:10.682Z,99.90
2022-07-29T17:34:39.707Z,99.90
2022-07-29T17:37:09.394Z,99.90
2022-07-29T17:39:41.379Z,99.90
2022-07-29T17:42:13.717Z,99.90
2022-07-29T17:44:41.405Z,99.90
2022-07-29T17:47:15.904Z,99.90
2022-07-29T17:49:45.485Z,99.90
2022-07-29T17:52:12.738Z,99.90
2022-07-29T17:54:42.475Z,99.90
2022-07-29T17:57:09.753Z,99.90
2022-07-29T17:59:36.840Z,99.90
2022-07-29T18:02:04.164Z,99.90
2022-07-29T18:04:31.589Z,99.90
2022-07-29T18:06:58.927Z,99.90
2022-07-29T18:09:26.255Z,99.90
2022-07-29T18:11:53.778Z,99.90
2022-07-29T18:14:20.858Z,99.90
2022-07-29T18:16:48.250Z,99.90
2022-07-29T18:19:16.159Z,99.90
2022-07-29T18:21:51.412Z,99.90
2022-07-29T18:24:25.595Z,99.90
2022-07-29T18:26:53.815Z,99.90
2022-07-29T18:29:21.550Z,99.90
2022-07-29T18:31:48.956Z,99.90
2022-07-29T18:34:17.085Z,99.90
2022-07-29T18:36:45.871Z,99.90
2022-07-29T18:39:20.811Z,99.90
2022-07-29T18:41:51.210Z,99.90
2022-07-29T18:44:22.735Z,99.90
2022-07-29T18:46:51.773Z,99.90
2022-07-29T18:49:19.693Z,99.90
2022-07-29T18:51:47.431Z,99.90
2022-07-29T18:54:17.518Z,99.90
2022-07-29T18:56:46.155Z,99.90
2022-07-29T18:59:17.007Z,99.90
2022-07-29T19:01:44.546Z,99.90
2022-07-29T19:04:11.890Z,99.90
2022-07-29T19:06:40.841Z,99.90
2022-07-29T19:09:08.827Z,99.90
2022-07-29T19:11:37.102Z,99.90
2022-07-29T19:14:05.534Z,99.90
2022-07-29T19:16:33.096Z,99.90
2022-07-29T19:19:03.365Z,99.90
2022-07-29T19:21:30.607Z,99.90
2022-07-29T19:24:04.256Z,99.90
2022-07-29T19:26:36.755Z,99.90
2022-07-29T19:29:04.572Z,99.90
2022-07-29T19:31:31.730Z,99.90
2022-07-29T19:33:59.182Z,99.90
2022-07-29T19:36:29.910Z,99.90
2022-07-29T19:38:57.425Z,99.90
2022-07-29T19:41:24.760Z,99.90
2022-07-29T19:43:53.177Z,99.90
2022-07-29T19:46:22.030Z,99.90
2022-07-29T19:48:50.689Z,99.90
2022-07-29T19:51:17.847Z,99.90
2022-07-29T19:53:44.987Z,99.90
2022-07-29T19:56:12.517Z,99.90
2022-07-29T19:58:41.205Z,99.90
2022-07-29T20:01:10.206Z,99.90
2022-07-29T20:03:44.765Z,99.90
2022-07-29T20:06:12.736Z,99.90
2022-07-29T20:08:40.264Z,99.90
2022-07-29T20:11:07.452Z,99.90
2022-07-29T20:13:35.352Z,99.90
2022-07-29T20:16:05.706Z,99.90
2022-07-29T20:18:33.067Z,99.90
2022-07-29T20:21:01.502Z,99.90
2022-07-29T20:23:33.241Z,99.90
2022-07-29T20:26:01.210Z,99.90
2022-07-29T20:28:28.547Z,99.90
2022-07-29T20:30:55.881Z,99.90
2022-07-29T20:33:23.106Z,99.90
2022-07-29T20:35:50.292Z,99.90
2022-07-29T20:38:18.455Z,99.90
2022-07-29T20:40:45.798Z,1.00
2022-07-29T20:43:13.078Z,99.90
2022-07-29T20:45:40.506Z,99.90
2022-07-29T20:48:08.216Z,88.50
2022-07-29T20:50:35.955Z,1.00
2022-07-29T20:53:03.463Z,1.00
2022-07-29T20:55:32.075Z,1.00
2022-07-29T20:57:59.262Z,1.00
2022-07-29T21:00:26.812Z,1.00
2022-07-29T21:02:54.337Z,1.00
2022-07-29T21:05:21.577Z,1.00
2022-07-29T21:07:54.310Z,1.00
2022-07-29T21:10:23.739Z,1.00
2022-07-29T21:12:51.157Z,1.00
2022-07-29T21:15:20.758Z,1.00
2022-07-29T21:17:48.452Z,1.00
2022-07-29T21:20:18.108Z,4.70
2022-07-29T21:22:45.751Z,15.50
2022-07-29T21:25:12.950Z,2.70
2022-07-29T21:27:58.853Z,2.20
2022-07-29T21:30:25.985Z,3.70
2022-07-29T21:32:53.417Z,16.40
2022-07-29T21:36:01.780Z,24.20
2022-07-29T21:38:07.838Z,28.40
2022-07-29T21:40:35.220Z,35.70
2022-07-29T21:43:02.275Z,74.20
2022-07-29T21:45:30.502Z,86.70
2022-07-29T21:47:57.657Z,80.30
2022-07-29T21:50:24.844Z,71.10
2022-07-29T21:52:52.190Z,41.10
2022-07-29T21:55:19.551Z,66.10
2022-07-29T21:57:50.253Z,63.10
2022-07-29T22:00:17.626Z,59.20
2022-07-29T22:02:45.417Z,84.20
2022-07-29T22:05:13.440Z,97.50
2022-07-29T22:07:55.620Z,99.90
2022-07-29T22:10:25.849Z,99.90
2022-07-29T22:12:54.512Z,99.90
2022-07-29T22:15:22.388Z,99.90
2022-07-29T22:17:50.306Z,99.90
2022-07-29T22:20:17.771Z,99.90
2022-07-29T22:22:44.849Z,99.90
2022-07-29T22:25:12.025Z,99.90
2022-07-29T22:27:39.433Z,99.90
2022-07-29T22:30:08.873Z,99.90
2022-07-29T22:32:37.088Z,99.90
2022-07-29T22:35:04.973Z,99.90
2022-07-29T22:37:32.169Z,99.90
2022-07-29T22:39:59.320Z,99.90
2022-07-29T22:42:26.868Z,99.90
2022-07-29T22:44:54.707Z,99.90
2022-07-29T22:47:39.033Z,99.90
2022-07-29T22:50:09.520Z,99.90
2022-07-29T22:52:36.938Z,99.90
2022-07-29T22:55:05.323Z,99.90
2022-07-29T22:57:32.683Z,99.90
2022-07-29T23:00:02.241Z,99.90
2022-07-29T23:02:30.381Z,99.90
2022-07-29T23:04:57.801Z,99.90
2022-07-29T23:07:24.811Z,99.90
2022-07-29T23:09:52.017Z,99.90
2022-07-29T23:12:19.249Z,99.90
2022-07-29T23:14:46.359Z,99.90
2022-07-29T23:17:13.508Z,99.90
2022-07-29T23:19:40.901Z,99.90
2022-07-29T23:22:07.930Z,99.90
2022-07-29T23:24:35.185Z,99.90
2022-07-29T23:27:02.833Z,99.90
2022-07-29T23:29:32.775Z,99.90
2022-07-29T23:32:03.674Z,99.90
2022-07-29T23:34:30.774Z,99.90
2022-07-29T23:36:58.306Z,99.90
2022-07-29T23:39:25.912Z,99.90
2022-07-29T23:41:53.047Z,99.90
2022-07-29T23:44:20.210Z,99.90
2022-07-29T23:46:47.495Z,99.90
2022-07-29T23:49:14.767Z,99.90
2022-07-29T23:51:41.941Z,99.90
2022-07-29T23:54:09.538Z,99.90
2022-07-29T23:56:36.572Z,99.90
2022-07-29T23:59:05.729Z,99.90
